createdAt,value
2018-02-18T00:01:17.649Z,3.30
2018-02-18T00:03:47.181Z,3.20
2018-02-18T00:06:15.961Z,3.20
2018-02-18T00:08:44.815Z,3.20
2018-02-18T00:11:13.577Z,3.20
2018-02-18T00:13:42.152Z,3.20
2018-02-18T00:16:10.717Z,3.10
2018-02-18T00:18:39.484Z,3.20
2018-02-18T00:21:09.008Z,3.20
2018-02-18T00:23:37.772Z,3.20
2018-02-18T00:26:06.545Z,3.30
2018-02-18T00:28:35.324Z,3.30
2018-02-18T00:31:03.865Z,3.30
2018-02-18T00:33:32.615Z,3.20
2018-02-18T00:36:01.376Z,3.20
2018-02-18T00:38:30.137Z,3.20
2018-02-18T00:40:58.898Z,3.20
2018-02-18T00:43:28.415Z,3.20
2018-02-18T00:45:57.940Z,3.30
2018-02-18T00:48:26.694Z,3.30
2018-02-18T00:50:55.260Z,3.30
2018-02-18T00:53:24.003Z,3.20
2018-02-18T00:55:52.754Z,3.30
2018-02-18T00:58:21.514Z,3.30
2018-02-18T01:00:50.475Z,3.20
2018-02-18T01:03:19.252Z,3.20
2018-02-18T01:05:48.013Z,3.30
2018-02-18T01:08:16.776Z,3.30
2018-02-18T01:10:45.531Z,3.30
2018-02-18T01:13:14.276Z,3.30
2018-02-18T01:15:43.042Z,3.40
2018-02-18T01:18:11.795Z,3.30
2018-02-18T01:20:40.569Z,3.20
2018-02-18T01:23:10.082Z,3.30
2018-02-18T01:25:38.664Z,3.30
2018-02-18T01:28:07.427Z,3.30
2018-02-18T01:30:36.950Z,3.20
2018-02-18T01:33:06.479Z,3.20
2018-02-18T01:35:35.066Z,3.10
2018-02-18T01:38:03.870Z,3.20
2018-02-18T01:40:32.735Z,3.20
2018-02-18T01:43:02.176Z,3.30
2018-02-18T01:45:30.848Z,3.30
2018-02-18T01:47:59.520Z,3.20
2018-02-18T01:50:37.051Z,3.30
2018-02-18T01:53:05.740Z,3.30
2018-02-18T01:55:34.855Z,3.30
2018-02-18T01:58:03.544Z,3.20
2018-02-18T02:00:32.216Z,3.20
2018-02-18T02:03:00.891Z,3.10
2018-02-18T02:05:29.559Z,3.20
2018-02-18T02:07:58.230Z,3.20
2018-02-18T02:10:26.896Z,3.30
2018-02-18T02:12:56.327Z,3.30
2018-02-18T02:15:25.011Z,3.20
2018-02-18T02:17:53.786Z,3.20
2018-02-18T02:20:23.236Z,3.20
2018-02-18T02:22:51.913Z,3.20
2018-02-18T02:25:20.584Z,3.20
2018-02-18T02:27:49.263Z,3.20
2018-02-18T02:30:17.943Z,3.20
2018-02-18T02:32:47.390Z,3.20
2018-02-18T02:35:16.059Z,3.20
2018-02-18T02:37:44.560Z,3.30
2018-02-18T02:40:13.223Z,3.20
2018-02-18T02:42:41.888Z,3.20
2018-02-18T02:45:10.566Z,3.20
2018-02-18T02:47:39.245Z,3.20
2018-02-18T02:50:07.920Z,3.10
2018-02-18T02:52:36.596Z,3.10
2018-02-18T02:55:05.264Z,3.10
2018-02-18T02:57:33.932Z,3.10
2018-02-18T03:00:02.633Z,3.10
2018-02-18T03:02:31.310Z,3.20
2018-02-18T03:04:59.975Z,3.20
2018-02-18T03:07:29.408Z,3.10
2018-02-18T03:09:58.077Z,3.10
2018-02-18T03:12:26.756Z,3.10
2018-02-18T03:14:55.424Z,3.20
2018-02-18T03:17:24.871Z,3.10
2018-02-18T03:19:53.831Z,3.10
2018-02-18T03:22:23.271Z,3.10
2018-02-18T03:24:51.951Z,3.10
2018-02-18T03:27:20.613Z,3.10
2018-02-18T03:29:49.279Z,3.10
2018-02-18T03:32:18.720Z,3.10
2018-02-18T03:34:47.383Z,3.10
2018-02-18T03:37:16.811Z,3.10
2018-02-18T03:39:45.488Z,3.10
2018-02-18T03:42:14.157Z,3.10
2018-02-18T03:44:43.603Z,3.20
2018-02-18T03:47:12.272Z,3.20
2018-02-18T03:49:40.947Z,3.20
2018-02-18T03:52:10.384Z,3.20
2018-02-18T03:54:39.053Z,3.20
2018-02-18T03:57:07.725Z,3.20
2018-02-18T03:59:36.503Z,3.20
2018-02-18T04:02:05.612Z,3.30
2018-02-18T04:04:34.279Z,3.30
2018-02-18T04:07:03.724Z,3.30
2018-02-18T04:09:32.387Z,3.20
2018-02-18T04:12:01.058Z,3.20
2018-02-18T04:14:29.711Z,3.20
2018-02-18T04:16:58.380Z,3.10
2018-02-18T04:19:27.072Z,3.10
2018-02-18T04:21:55.748Z,3.10
2018-02-18T04:24:24.410Z,3.10
2018-02-18T04:26:53.082Z,3.00
2018-02-18T04:29:22.515Z,3.00
2018-02-18T04:31:51.194Z,3.00
2018-02-18T04:34:19.858Z,3.00
2018-02-18T04:36:49.323Z,3.00
2018-02-18T04:39:17.996Z,3.00
2018-02-18T04:41:46.671Z,3.00
2018-02-18T04:44:15.336Z,3.00
2018-02-18T04:46:44.772Z,3.10
2018-02-18T04:49:13.431Z,3.00
2018-02-18T04:51:42.100Z,3.10
2018-02-18T04:54:10.766Z,3.10
2018-02-18T04:56:39.444Z,3.10
2018-02-18T04:59:08.122Z,3.10
2018-02-18T05:01:38.192Z,3.10
2018-02-18T05:04:06.868Z,3.20
2018-02-18T05:06:36.313Z,3.10
2018-02-18T05:09:04.319Z,3.10
2018-02-18T05:11:32.983Z,3.20
2018-02-18T05:14:01.657Z,3.20
2018-02-18T05:16:30.332Z,3.20
2018-02-18T05:18:59.013Z,3.20
2018-02-18T05:21:27.679Z,3.20
2018-02-18T05:23:57.116Z,3.20
2018-02-18T05:26:25.791Z,3.20
2018-02-18T05:28:54.473Z,3.20
2018-02-18T06:59:22.184Z,3.40
2018-02-18T07:01:50.855Z,3.30
2018-02-18T07:04:19.523Z,3.40
2018-02-18T07:06:48.196Z,3.30
2018-02-18T07:09:17.622Z,3.30
2018-02-18T07:11:46.285Z,3.30
2018-02-18T07:14:15.715Z,3.40
2018-02-18T07:16:44.383Z,3.30
2018-02-18T07:19:13.840Z,3.40
2018-02-18T07:21:42.512Z,3.40
2018-02-18T07:24:11.179Z,3.50
2018-02-18T07:26:39.844Z,3.50
2018-02-18T07:29:09.290Z,3.50
2018-02-18T07:31:37.956Z,3.50
2018-02-18T07:34:06.617Z,3.50
2018-02-18T07:36:36.055Z,3.50
2018-02-18T07:39:04.072Z,3.50
2018-02-18T07:44:20.942Z,3.50
2018-02-18T07:49:54.431Z,3.50
2018-02-18T07:52:29.617Z,3.60
2018-02-18T07:54:59.600Z,3.50
2018-02-18T07:57:29.052Z,3.60
2018-02-18T07:59:57.745Z,3.60
2018-02-18T08:02:26.407Z,3.60
2018-02-18T08:04:55.071Z,3.60
2018-02-18T08:07:24.505Z,3.70
2018-02-18T08:09:53.171Z,3.70
2018-02-18T08:12:21.832Z,3.80
2018-02-18T08:14:50.503Z,3.80
2018-02-18T08:17:19.175Z,3.80
2018-02-18T08:19:47.839Z,3.90
2018-02-18T08:22:16.508Z,3.90
2018-02-18T08:24:45.175Z,3.90
2018-02-18T08:27:14.603Z,4.00
2018-02-18T08:29:43.263Z,4.00
2018-02-18T08:32:11.940Z,4.00
2018-02-18T08:34:40.628Z,4.00
2018-02-18T08:37:09.311Z,4.00
2018-02-18T08:39:37.987Z,4.00
2018-02-18T08:42:06.702Z,4.00
2018-02-18T08:44:35.519Z,3.90
2018-02-18T08:47:04.894Z,3.90
2018-02-18T08:49:34.327Z,4.00
2018-02-18T08:52:03.025Z,4.00
2018-02-18T08:54:31.695Z,4.00
2018-02-18T08:57:00.363Z,4.10
2018-02-18T08:59:29.796Z,4.10
2018-02-18T09:01:58.474Z,4.10
2018-02-18T09:04:27.143Z,4.20
2018-02-18T09:06:56.579Z,4.30
2018-02-18T09:09:25.403Z,4.20
2018-02-18T09:11:54.077Z,4.20
2018-02-18T09:14:22.767Z,4.20
2018-02-18T09:16:51.448Z,4.20
2018-02-18T09:19:20.123Z,4.30
2018-02-18T09:21:48.795Z,4.30
2018-02-18T09:24:17.455Z,4.30
2018-02-18T09:26:46.887Z,4.20
2018-02-18T09:29:15.556Z,4.20
2018-02-18T09:31:44.998Z,4.30
2018-02-18T09:34:13.677Z,4.30
2018-02-18T09:36:42.351Z,4.30
2018-02-18T09:39:11.017Z,4.30
2018-02-18T09:41:39.697Z,4.30
2018-02-18T09:44:09.128Z,4.50
2018-02-18T09:46:37.791Z,4.40
2018-02-18T09:49:07.237Z,4.40
2018-02-18T09:51:35.916Z,4.40
2018-02-18T09:54:05.278Z,4.40
2018-02-18T09:56:34.707Z,4.40
2018-02-18T09:59:03.376Z,4.40
2018-02-18T10:01:32.826Z,4.50
2018-02-18T10:04:01.495Z,4.50
2018-02-18T10:06:30.159Z,4.50
2018-02-18T10:08:59.595Z,4.40
2018-02-18T10:11:28.263Z,4.40
2018-02-18T10:13:56.928Z,4.40
2018-02-18T10:16:26.368Z,4.30
2018-02-18T10:18:55.040Z,4.30
2018-02-18T10:21:23.713Z,4.30
2018-02-18T10:23:52.400Z,4.30
2018-02-18T10:26:21.844Z,4.90
2018-02-18T10:28:50.528Z,4.90
2018-02-18T10:31:19.203Z,6.10
2018-02-18T10:33:48.640Z,7.40
2018-02-18T10:36:18.091Z,7.80
2018-02-18T10:38:46.776Z,7.80
2018-02-18T10:41:16.028Z,7.40
2018-02-18T10:43:44.699Z,7.30
2018-02-18T10:46:13.391Z,6.70
2018-02-18T10:48:42.063Z,6.30
2018-02-18T10:51:10.729Z,5.90
2018-02-18T10:53:39.397Z,5.50
2018-02-18T10:56:08.870Z,5.20
2018-02-18T10:58:38.507Z,5.20
2018-02-18T11:01:07.976Z,5.00
2018-02-18T11:03:37.210Z,5.00
2018-02-18T11:06:06.489Z,4.90
2018-02-18T11:08:35.163Z,4.90
2018-02-18T11:11:03.841Z,4.90
2018-02-18T11:13:32.513Z,4.80
2018-02-18T11:16:01.180Z,4.80
2018-02-18T11:18:30.614Z,4.70
2018-02-18T11:20:59.298Z,4.70
2018-02-18T11:23:27.980Z,4.70
2018-02-18T11:25:57.588Z,4.70
2018-02-18T11:28:26.259Z,4.70
2018-02-18T11:30:54.588Z,4.80
2018-02-18T11:33:23.262Z,4.80
2018-02-18T11:35:51.924Z,4.80
2018-02-18T11:38:20.596Z,4.80
2018-02-18T11:40:50.028Z,4.80
2018-02-18T11:43:18.692Z,4.80
2018-02-18T11:45:47.358Z,5.00
2018-02-18T11:48:16.218Z,5.00
2018-02-18T11:50:44.876Z,4.90
2018-02-18T11:53:13.536Z,4.80
2018-02-18T11:55:42.212Z,4.80
2018-02-18T11:58:11.652Z,4.80
2018-02-18T12:00:40.335Z,4.80
2018-02-18T12:03:09.000Z,4.70
2018-02-18T12:05:37.667Z,4.70
2018-02-18T12:08:06.354Z,4.80
2018-02-18T12:10:35.789Z,4.80
2018-02-18T12:13:05.675Z,4.80
2018-02-18T12:15:35.125Z,4.80
2018-02-18T12:18:03.795Z,4.80
2018-02-18T12:20:32.461Z,4.90
2018-02-18T12:23:01.879Z,4.90
2018-02-18T12:25:30.528Z,4.80
2018-02-18T12:27:59.241Z,4.90
2018-02-18T12:30:28.481Z,4.70
2018-02-18T12:32:57.140Z,4.70
2018-02-18T12:35:25.805Z,4.70
2018-02-18T12:37:55.223Z,4.80
2018-02-18T12:40:24.654Z,4.90
2018-02-18T12:42:53.320Z,4.90
2018-02-18T12:45:21.972Z,5.00
2018-02-18T12:47:50.628Z,4.90
2018-02-18T12:50:19.299Z,4.80
2018-02-18T12:52:47.955Z,4.70
2018-02-18T12:55:17.392Z,4.80
2018-02-18T12:57:46.097Z,4.80
2018-02-18T13:00:14.963Z,4.90
2018-02-18T13:02:43.763Z,4.80
2018-02-18T13:05:12.420Z,4.90
2018-02-18T13:07:41.082Z,4.90
2018-02-18T13:10:09.731Z,4.90
2018-02-18T13:12:38.407Z,4.90
2018-02-18T13:15:07.657Z,4.90
2018-02-18T13:17:37.071Z,4.90
2018-02-18T13:20:06.611Z,4.90
2018-02-18T13:22:36.196Z,5.10
2018-02-18T13:25:05.623Z,5.00
2018-02-18T13:27:34.284Z,5.00
2018-02-18T13:30:03.380Z,4.90
2018-02-18T13:32:32.123Z,4.90
2018-02-18T13:35:00.902Z,4.80
2018-02-18T13:37:29.564Z,4.80
2018-02-18T13:39:58.230Z,4.80
2018-02-18T13:42:27.661Z,4.90
2018-02-18T13:44:56.308Z,4.80
2018-02-18T13:47:25.739Z,4.90
2018-02-18T13:49:54.401Z,4.90
2018-02-18T13:52:23.906Z,4.90
2018-02-18T13:54:53.333Z,5.00
2018-02-18T13:57:22.241Z,4.90
2018-02-18T13:59:50.900Z,5.00
2018-02-18T14:02:20.352Z,4.90
2018-02-18T14:04:49.055Z,4.90
2018-02-18T14:07:17.864Z,4.90
2018-02-18T14:09:46.554Z,5.00
2018-02-18T14:12:15.207Z,4.90
2018-02-18T14:14:43.872Z,5.00
2018-02-18T14:17:12.531Z,4.90
2018-02-18T14:19:42.349Z,4.80
2018-02-18T14:22:11.031Z,4.80
2018-02-18T14:24:40.469Z,4.70
2018-02-18T14:27:09.124Z,4.70
2018-02-18T14:29:38.548Z,4.70
2018-02-18T14:32:07.016Z,4.70
2018-02-18T14:34:35.686Z,4.70
2018-02-18T14:37:05.364Z,4.60
2018-02-18T14:39:34.066Z,4.60
2018-02-18T14:42:13.891Z,4.70
2018-02-18T14:44:53.672Z,4.70
2018-02-18T14:47:33.627Z,4.70
2018-02-18T14:50:14.306Z,4.70
2018-02-18T14:55:55.509Z,4.60
2018-02-18T14:58:24.176Z,4.60
2018-02-18T15:00:53.625Z,4.70
2018-02-18T15:03:45.985Z,4.60
2018-02-18T15:06:14.699Z,4.70
2018-02-18T15:08:43.492Z,4.80
2018-02-18T15:11:12.164Z,4.70
2018-02-18T15:13:41.070Z,4.70
2018-02-18T15:16:09.736Z,4.70
2018-02-18T15:18:39.179Z,4.70
2018-02-18T15:21:08.614Z,4.70
2018-02-18T15:23:37.271Z,4.70
2018-02-18T15:26:06.690Z,4.70
2018-02-18T15:28:35.343Z,4.60
2018-02-18T15:31:04.021Z,4.60
2018-02-18T15:33:32.676Z,4.60
2018-02-18T15:36:01.329Z,4.60
2018-02-18T15:38:30.004Z,4.60
2018-02-18T15:40:59.439Z,4.50
2018-02-18T15:43:28.145Z,4.50
2018-02-18T15:45:57.748Z,4.60
2018-02-18T15:48:26.431Z,4.50
2018-02-18T15:50:55.079Z,4.50
2018-02-18T15:53:25.316Z,4.50
2018-02-18T15:55:53.980Z,4.50
2018-02-18T15:58:23.752Z,4.40
2018-02-18T16:00:52.408Z,4.40
2018-02-18T16:03:21.069Z,4.40
2018-02-18T16:05:50.605Z,4.40
2018-02-18T16:08:19.274Z,4.30
2018-02-18T16:10:48.732Z,4.40
2018-02-18T16:13:17.423Z,4.40
2018-02-18T16:15:46.083Z,4.40
2018-02-18T16:18:15.533Z,4.30
2018-02-18T16:20:44.195Z,4.30
2018-02-18T16:23:12.864Z,4.30
2018-02-18T16:25:41.208Z,4.30
2018-02-18T16:28:10.600Z,4.20
2018-02-18T16:30:40.039Z,4.20
2018-02-18T16:33:08.715Z,4.20
2018-02-18T16:35:37.374Z,4.20
2018-02-18T16:38:06.798Z,4.20
2018-02-18T16:40:35.452Z,4.20
2018-02-18T16:43:04.111Z,4.20
2018-02-18T16:45:32.767Z,4.20
2018-02-18T16:48:01.440Z,4.20
2018-02-18T16:50:30.121Z,4.10
2018-02-18T16:52:59.577Z,4.00
2018-02-18T16:55:28.266Z,4.00
2018-02-18T16:57:56.924Z,4.00
2018-02-18T17:00:25.587Z,4.00
2018-02-18T17:02:55.042Z,5.50
2018-02-18T17:05:23.384Z,5.60
2018-02-18T17:07:52.048Z,5.80
2018-02-18T17:10:21.538Z,6.70
2018-02-18T17:12:50.208Z,6.70
2018-02-18T17:15:19.084Z,6.80
2018-02-18T17:17:47.744Z,6.20
2018-02-18T17:20:16.424Z,5.70
2018-02-18T17:22:45.072Z,5.30
2018-02-18T17:25:13.740Z,5.00
2018-02-18T17:27:42.420Z,4.90
2018-02-18T17:30:11.144Z,4.60
2018-02-18T17:32:40.601Z,4.50
2018-02-18T17:35:09.276Z,4.50
2018-02-18T17:37:37.936Z,4.40
2018-02-18T17:40:07.385Z,4.30
2018-02-18T17:42:36.086Z,4.20
2018-02-18T17:45:04.451Z,4.20
2018-02-18T17:47:33.140Z,4.20
2018-02-18T17:50:01.860Z,4.20
2018-02-18T17:52:31.996Z,4.00
2018-02-18T17:55:01.460Z,4.00
2018-02-18T17:57:30.185Z,4.00
2018-02-18T17:59:58.679Z,3.90
2018-02-18T18:02:27.160Z,3.90
2018-02-18T18:04:56.600Z,3.90
2018-02-18T18:07:26.204Z,3.90
2018-02-18T18:09:55.675Z,3.90
2018-02-18T18:12:25.124Z,3.80
2018-02-18T18:14:53.815Z,3.80
2018-02-18T18:17:22.176Z,3.80
2018-02-18T18:19:50.855Z,3.80
2018-02-18T18:22:20.208Z,3.80
2018-02-18T18:24:49.778Z,3.80
2018-02-18T18:27:18.453Z,3.80
2018-02-18T18:29:47.127Z,3.70
2018-02-18T18:32:15.839Z,3.70
2018-02-18T18:34:44.512Z,3.70
2018-02-18T18:37:13.276Z,3.80
2018-02-18T18:39:42.711Z,3.70
2018-02-18T18:42:11.379Z,3.70
2018-02-18T18:44:41.475Z,3.70
2018-02-18T18:47:10.139Z,3.70
2018-02-18T18:49:38.812Z,3.70
2018-02-18T18:52:07.494Z,3.70
2018-02-18T18:54:36.179Z,3.70
2018-02-18T18:57:04.827Z,3.70
2018-02-18T18:59:34.279Z,3.70
2018-02-18T19:02:03.719Z,3.60
2018-02-18T19:04:33.183Z,3.60
2018-02-18T19:07:01.866Z,3.60
2018-02-18T19:09:30.523Z,3.60
2018-02-18T19:11:59.185Z,3.60
2018-02-18T19:14:28.636Z,3.60
2018-02-18T19:16:57.295Z,3.60
2018-02-18T19:19:25.964Z,3.50
2018-02-18T19:21:55.407Z,3.50
2018-02-18T19:24:24.085Z,3.50
2018-02-18T20:54:51.038Z,3.50
2018-02-18T20:57:20.538Z,3.10
2018-02-18T20:59:49.979Z,3.10
2018-02-18T21:02:18.645Z,3.10
2018-02-18T21:04:47.311Z,3.10
2018-02-18T21:07:17.273Z,3.10
2018-02-18T21:09:45.608Z,3.10
2018-02-18T21:12:15.037Z,3.10
2018-02-18T21:14:44.621Z,3.10
2018-02-18T21:17:14.055Z,3.10
2018-02-18T21:19:42.715Z,3.10
2018-02-18T21:22:12.152Z,3.10
2018-02-18T21:24:40.811Z,3.10
2018-02-18T21:27:10.105Z,3.20
2018-02-18T21:29:39.534Z,3.20
2018-02-18T21:32:08.220Z,3.20
2018-02-18T21:34:36.983Z,3.20
2018-02-18T21:37:06.431Z,3.20
2018-02-18T21:39:35.104Z,3.20
2018-02-18T21:42:03.771Z,3.20
2018-02-18T21:44:32.446Z,3.20
2018-02-18T21:47:01.892Z,3.20
2018-02-18T21:49:30.567Z,3.20
2018-02-18T21:51:59.242Z,3.20
2018-02-18T21:54:28.808Z,3.20
2018-02-18T21:56:57.487Z,3.20
2018-02-18T21:59:26.227Z,3.20
2018-02-18T22:01:54.899Z,3.20
2018-02-18T22:04:24.335Z,3.20
2018-02-18T22:06:53.018Z,3.20
2018-02-18T22:09:21.701Z,3.20
2018-02-18T22:11:50.051Z,3.20
2018-02-18T22:14:19.487Z,3.20
2018-02-18T22:16:48.778Z,3.10
2018-02-18T22:19:17.446Z,3.20
2018-02-18T22:21:46.883Z,3.20
2018-02-18T22:24:15.574Z,3.10
2018-02-18T22:26:44.243Z,3.10
2018-02-18T22:29:12.915Z,3.10
2018-02-18T22:31:42.339Z,3.00
2018-02-18T22:34:11.008Z,3.00
2018-02-18T22:36:40.444Z,3.00
2018-02-18T22:39:09.119Z,2.90
2018-02-18T22:41:37.787Z,2.90
2018-02-18T22:44:06.464Z,2.90
2018-02-18T22:46:35.911Z,2.80
2018-02-18T22:49:04.075Z,2.80
2018-02-18T22:51:32.756Z,2.80
2018-02-18T22:54:01.416Z,2.80
2018-02-18T22:56:30.861Z,2.70
2018-02-18T22:58:59.539Z,2.70
2018-02-18T23:01:28.208Z,2.70
2018-02-18T23:03:56.976Z,2.70
2018-02-18T23:06:26.407Z,2.70
2018-02-18T23:08:55.084Z,2.70
2018-02-18T23:11:23.751Z,2.70
2018-02-18T23:13:52.415Z,2.70
2018-02-18T23:16:21.076Z,2.60
2018-02-18T23:18:49.747Z,2.60
2018-02-18T23:21:18.084Z,2.60
2018-02-18T23:23:46.755Z,2.60
2018-02-18T23:26:15.415Z,2.50
2018-02-18T23:28:44.091Z,2.50
2018-02-18T23:31:12.758Z,2.40
2018-02-18T23:33:41.434Z,2.40
2018-02-18T23:36:10.882Z,2.40
2018-02-18T23:38:39.559Z,2.40
2018-02-18T23:41:08.243Z,2.30
2018-02-18T23:43:36.911Z,2.30
2018-02-18T23:46:05.580Z,2.20
2018-02-18T23:48:35.020Z,2.20
2018-02-18T23:51:03.703Z,2.20
2018-02-18T23:53:32.379Z,2.20
2018-02-18T23:56:01.047Z,2.10
2018-02-18T23:58:30.501Z,2.10
